createdAt,value
2023-03-17T00:01:44.649Z,9.27
2023-03-17T00:04:14.317Z,7.80
2023-03-17T00:06:42.663Z,8.00
2023-03-17T00:09:14.827Z,7.43
2023-03-17T00:11:42.965Z,7.73
2023-03-17T00:14:10.806Z,7.83
2023-03-17T00:16:41.388Z,7.40
2023-03-17T00:19:16.470Z,6.43
2023-03-17T00:21:45.111Z,9.07
2023-03-17T00:24:15.033Z,7.93
2023-03-17T00:26:43.480Z,7.03
2023-03-17T00:29:11.951Z,8.40
2023-03-17T00:31:40.356Z,6.30
2023-03-17T00:34:12.140Z,7.40
2023-03-17T00:36:41.471Z,7.87
2023-03-17T00:39:17.457Z,7.33
2023-03-17T00:44:13.199Z,6.57
2023-03-17T00:46:42.094Z,7.70
2023-03-17T00:51:45.796Z,8.50
2023-03-17T00:54:15.505Z,7.43
2023-03-17T00:56:43.917Z,7.27
2023-03-17T00:59:20.406Z,6.57
2023-03-17T01:01:49.103Z,7.90
2023-03-17T01:04:18.502Z,6.33
2023-03-17T01:06:48.257Z,7.30
2023-03-17T01:09:16.839Z,6.50
2023-03-17T01:11:44.927Z,6.67
2023-03-17T01:14:15.195Z,6.60
2023-03-17T01:16:43.110Z,7.47
2023-03-17T01:19:11.808Z,6.43
2023-03-17T01:21:39.622Z,6.70
2023-03-17T01:24:09.518Z,6.90
2023-03-17T01:26:37.441Z,8.90
2023-03-17T01:29:06.245Z,5.90
2023-03-17T01:31:34.089Z,8.27
2023-03-17T01:34:02.593Z,6.83
2023-03-17T01:36:30.334Z,7.78
2023-03-17T01:38:58.586Z,5.60
2023-03-17T01:41:27.650Z,8.10
2023-03-17T01:43:55.531Z,6.00
2023-03-17T01:46:27.436Z,6.90
2023-03-17T01:49:10.887Z,6.40
2023-03-17T01:51:46.315Z,5.77
2023-03-17T01:54:18.857Z,9.63
2023-03-17T01:56:51.694Z,7.43
2023-03-17T01:59:23.557Z,6.90
2023-03-17T02:01:55.548Z,7.50
2023-03-17T02:04:26.732Z,7.43
2023-03-17T02:06:58.317Z,7.80
2023-03-17T02:09:28.629Z,6.53
2023-03-17T02:11:59.740Z,7.50
2023-03-17T02:14:29.757Z,7.07
2023-03-17T02:16:57.662Z,7.77
2023-03-17T02:19:25.612Z,7.47
2023-03-17T02:21:57.954Z,6.30
2023-03-17T02:24:34.025Z,7.67
2023-03-17T02:27:06.552Z,6.43
2023-03-17T02:29:37.724Z,7.13
2023-03-17T02:32:06.416Z,6.30
2023-03-17T02:34:34.901Z,6.80
2023-03-17T02:37:03.976Z,6.40
2023-03-17T02:39:32.224Z,6.50
2023-03-17T02:41:59.944Z,6.10
2023-03-17T02:44:27.987Z,7.60
2023-03-17T02:46:56.523Z,7.00
2023-03-17T02:49:24.791Z,8.57
2023-03-17T02:51:53.005Z,7.07
2023-03-17T02:54:22.164Z,6.27
2023-03-17T02:56:49.925Z,6.27
2023-03-17T02:59:17.827Z,6.13
2023-03-17T03:01:48.321Z,5.77
2023-03-17T03:04:16.232Z,6.67
2023-03-17T03:06:44.671Z,5.93
2023-03-17T03:09:12.999Z,6.10
2023-03-17T03:11:42.614Z,6.67
2023-03-17T03:14:11.654Z,6.10
2023-03-17T03:16:39.616Z,7.50
2023-03-17T03:19:08.075Z,6.83
2023-03-17T03:21:36.699Z,6.70
2023-03-17T03:24:05.248Z,6.80
2023-03-17T03:26:33.005Z,5.90
2023-03-17T03:29:02.148Z,5.60
2023-03-17T03:31:30.021Z,5.57
2023-03-17T03:33:57.976Z,5.90
2023-03-17T03:36:27.431Z,6.60
2023-03-17T03:38:55.245Z,6.40
2023-03-17T03:41:22.962Z,5.90
2023-03-17T03:43:50.791Z,6.10
2023-03-17T03:46:20.331Z,5.60
2023-03-17T03:48:48.261Z,6.70
2023-03-17T03:51:16.077Z,5.50
2023-03-17T03:53:43.798Z,7.70
2023-03-17T03:56:11.641Z,6.23
2023-03-17T03:58:39.374Z,6.50
2023-03-17T04:01:07.984Z,6.20
2023-03-17T04:03:37.447Z,7.10
2023-03-17T04:06:05.803Z,7.50
2023-03-17T04:08:33.860Z,6.60
2023-03-17T04:11:01.811Z,7.33
2023-03-17T04:13:29.809Z,8.25
2023-03-17T04:15:57.579Z,7.20
2023-03-17T04:18:25.777Z,7.70
2023-03-17T04:20:54.852Z,6.80
2023-03-17T04:23:22.584Z,9.73
2023-03-17T04:25:51.927Z,6.20
2023-03-17T04:28:20.477Z,6.70
2023-03-17T04:30:48.302Z,6.70
2023-03-17T04:33:16.663Z,6.47
2023-03-17T04:35:44.503Z,8.43
2023-03-17T04:38:14.316Z,6.37
2023-03-17T04:40:42.178Z,11.13
2023-03-17T04:43:10.279Z,8.33
2023-03-17T04:45:38.473Z,8.13
2023-03-17T04:48:06.883Z,6.90
2023-03-17T04:50:34.626Z,8.70
2023-03-17T04:53:02.519Z,8.37
2023-03-17T04:55:31.730Z,7.40
2023-03-17T04:57:59.589Z,9.20
2023-03-17T05:00:27.944Z,8.47
2023-03-17T05:02:55.943Z,9.07
2023-03-17T05:05:23.823Z,7.13
2023-03-17T05:07:51.559Z,6.73
2023-03-17T05:10:19.522Z,9.70
2023-03-17T05:12:48.697Z,7.70
2023-03-17T05:15:17.147Z,8.53
2023-03-17T05:17:45.204Z,8.20
2023-03-17T05:20:14.047Z,10.60
2023-03-17T05:22:41.953Z,8.13
2023-03-17T05:25:10.453Z,14.63
2023-03-17T05:27:38.207Z,8.87
2023-03-17T05:30:08.624Z,7.77
2023-03-17T05:32:36.719Z,10.13
2023-03-17T05:35:05.980Z,9.10
2023-03-17T05:37:33.785Z,8.13
2023-03-17T05:40:01.509Z,9.97
2023-03-17T05:42:29.274Z,8.90
2023-03-17T05:44:57.024Z,8.60
2023-03-17T05:47:26.583Z,8.90
2023-03-17T05:49:54.314Z,9.30
2023-03-17T05:52:22.048Z,8.47
2023-03-17T05:54:51.897Z,10.63
2023-03-17T05:57:19.778Z,8.77
2023-03-17T05:59:47.659Z,11.13
2023-03-17T06:02:15.687Z,9.57
2023-03-17T06:04:44.853Z,12.80
2023-03-17T06:07:13.025Z,10.73
2023-03-17T06:09:41.639Z,10.03
2023-03-17T06:12:10.286Z,7.60
2023-03-17T06:14:38.048Z,9.00
2023-03-17T06:17:06.276Z,9.20
2023-03-17T06:19:34.013Z,8.43
2023-03-17T06:22:03.050Z,10.37
2023-03-17T06:24:31.256Z,8.27
2023-03-17T06:26:58.981Z,9.33
2023-03-17T06:29:28.999Z,11.23
2023-03-17T06:31:59.570Z,10.03
2023-03-17T06:34:32.544Z,10.50
2023-03-17T06:37:00.636Z,10.10
2023-03-17T06:39:29.710Z,11.00
2023-03-17T06:41:57.443Z,10.50
2023-03-17T06:44:25.189Z,10.40
2023-03-17T06:46:53.142Z,11.80
2023-03-17T06:49:20.909Z,11.73
2023-03-17T06:51:48.627Z,9.65
2023-03-17T06:54:18.167Z,9.93
2023-03-17T06:56:47.536Z,10.00
2023-03-17T06:59:15.247Z,8.70
2023-03-17T07:01:43.056Z,10.90
2023-03-17T07:04:11.055Z,10.47
2023-03-17T07:06:39.061Z,11.20
2023-03-17T07:09:07.515Z,9.90
2023-03-17T07:11:35.249Z,9.20
2023-03-17T07:14:04.382Z,9.73
2023-03-17T07:16:32.905Z,11.07
2023-03-17T07:19:01.409Z,9.33
2023-03-17T07:21:29.696Z,12.30
2023-03-17T07:23:57.494Z,10.70
2023-03-17T07:26:25.252Z,8.17
2023-03-17T07:28:52.972Z,11.17
2023-03-17T07:31:23.250Z,11.00
2023-03-17T07:33:51.576Z,8.57
2023-03-17T07:36:19.308Z,9.03
2023-03-17T07:38:47.296Z,8.37
2023-03-17T07:41:15.054Z,9.20
2023-03-17T07:43:43.318Z,10.23
2023-03-17T07:46:11.142Z,9.70
2023-03-17T07:48:42.106Z,10.07
2023-03-17T07:51:14.996Z,9.63
2023-03-17T07:53:43.181Z,11.07
2023-03-17T07:56:11.013Z,9.33
2023-03-17T07:58:38.885Z,11.70
2023-03-17T08:01:08.417Z,13.60
2023-03-17T08:03:38.128Z,7.77
2023-03-17T08:06:09.064Z,8.33
2023-03-17T08:08:36.946Z,8.53
2023-03-17T08:11:06.274Z,8.32
2023-03-17T08:13:34.612Z,10.20
2023-03-17T08:16:02.600Z,9.73
2023-03-17T08:18:30.373Z,8.47
2023-03-17T08:20:58.642Z,9.27
2023-03-17T08:23:27.759Z,11.03
2023-03-17T08:25:58.154Z,7.27
2023-03-17T08:28:27.106Z,10.50
2023-03-17T08:30:55.796Z,8.37
2023-03-17T08:33:23.579Z,8.50
2023-03-17T08:35:51.525Z,7.87
2023-03-17T08:38:19.268Z,8.03
2023-03-17T08:40:50.475Z,9.70
2023-03-17T08:43:18.638Z,8.60
2023-03-17T08:45:46.519Z,11.03
2023-03-17T08:48:14.348Z,9.70
2023-03-17T08:50:42.207Z,12.57
2023-03-17T08:53:10.006Z,12.03
2023-03-17T08:55:38.677Z,9.30
2023-03-17T08:58:08.226Z,8.67
2023-03-17T09:00:36.008Z,9.60
2023-03-17T09:03:03.827Z,8.20
2023-03-17T09:05:32.032Z,11.57
2023-03-17T09:08:00.023Z,10.30
2023-03-17T09:10:29.113Z,9.00
2023-03-17T09:13:02.825Z,10.40
2023-03-17T09:15:33.744Z,9.70
2023-03-17T09:18:03.139Z,8.00
2023-03-17T09:20:31.515Z,7.10
2023-03-17T09:23:00.275Z,10.63
2023-03-17T09:25:28.273Z,8.30
2023-03-17T09:27:56.596Z,8.50
2023-03-17T09:30:26.435Z,6.47
2023-03-17T09:32:55.582Z,6.00
2023-03-17T09:35:23.401Z,6.00
2023-03-17T09:37:52.518Z,5.30
2023-03-17T09:40:25.747Z,4.80
2023-03-17T09:43:01.516Z,5.30
2023-03-17T09:45:33.673Z,4.17
2023-03-17T09:48:33.552Z,4.03
2023-03-17T09:51:04.799Z,4.40
2023-03-17T09:53:36.535Z,4.53
2023-03-17T09:56:09.695Z,4.20
2023-03-17T09:58:40.378Z,4.10
2023-03-17T10:01:12.722Z,4.70
2023-03-17T10:03:42.697Z,4.37
2023-03-17T10:06:29.766Z,4.87
2023-03-17T10:09:03.387Z,4.10
2023-03-17T10:11:40.053Z,4.40
2023-03-17T10:14:21.409Z,5.53
2023-03-17T10:16:54.791Z,4.30
2023-03-17T10:19:29.435Z,4.20
2023-03-17T10:22:00.487Z,4.70
2023-03-17T10:24:32.406Z,4.60
2023-03-17T10:27:02.901Z,5.03
2023-03-17T10:29:31.808Z,7.20
2023-03-17T10:31:59.914Z,4.73
2023-03-17T10:34:32.137Z,5.70
2023-03-17T10:37:02.526Z,4.83
2023-03-17T10:39:32.740Z,4.80
2023-03-17T10:42:09.038Z,4.53
2023-03-17T10:44:43.876Z,4.40
2023-03-17T10:47:26.628Z,4.90
2023-03-17T10:49:57.543Z,5.17
2023-03-17T10:52:28.401Z,4.80
2023-03-17T10:55:02.904Z,5.83
2023-03-17T10:57:31.148Z,4.83
2023-03-17T11:00:02.278Z,4.47
2023-03-17T11:02:33.001Z,4.60
2023-03-17T11:05:06.815Z,4.10
2023-03-17T11:07:38.123Z,5.47
2023-03-17T11:10:15.962Z,5.40
2023-03-17T11:12:43.990Z,4.20
2023-03-17T11:15:16.536Z,4.77
2023-03-17T11:17:51.594Z,5.17
2023-03-17T11:20:42.158Z,7.10
2023-03-17T11:23:22.295Z,5.33
2023-03-17T11:25:58.779Z,5.70
2023-03-17T11:28:32.003Z,7.43
2023-03-17T11:31:05.145Z,6.70
2023-03-17T11:33:36.934Z,5.93
2023-03-17T11:36:20.150Z,5.83
2023-03-17T11:38:58.448Z,5.37
2023-03-17T11:41:44.894Z,4.73
2023-03-17T11:44:38.935Z,4.47
2023-03-17T11:47:15.227Z,4.80
2023-03-17T11:49:44.976Z,5.60
2023-03-17T11:52:24.907Z,5.40
2023-03-17T11:54:59.000Z,6.50
2023-03-17T11:57:34.072Z,6.00
2023-03-17T12:00:05.713Z,5.20
2023-03-17T12:02:41.709Z,6.73
2023-03-17T12:05:13.254Z,4.70
2023-03-17T12:07:46.712Z,5.37
2023-03-17T12:10:20.388Z,4.90
2023-03-17T12:12:53.085Z,5.50
2023-03-17T12:15:29.348Z,5.50
2023-03-17T12:18:01.548Z,5.27
2023-03-17T12:20:34.869Z,5.33
2023-03-17T12:23:12.757Z,8.17
2023-03-17T12:25:50.893Z,5.10
2023-03-17T12:28:24.440Z,5.40
2023-03-17T12:30:55.410Z,9.50
2023-03-17T12:33:31.562Z,7.10
2023-03-17T12:36:00.650Z,6.80
2023-03-17T12:38:37.353Z,4.83
2023-03-17T12:41:33.928Z,4.57
2023-03-17T12:44:07.901Z,5.80
2023-03-17T12:46:55.763Z,5.80
2023-03-17T12:49:49.066Z,5.30
2023-03-17T12:52:38.226Z,6.40
2023-03-17T12:55:14.470Z,6.57
2023-03-17T12:57:44.241Z,5.00
2023-03-17T13:00:24.395Z,7.23
2023-03-17T13:03:08.130Z,5.27
2023-03-17T13:05:37.289Z,5.83
2023-03-17T13:08:10.879Z,8.17
2023-03-17T13:10:42.638Z,6.87
2023-03-17T13:13:23.196Z,4.90
2023-03-17T13:15:57.305Z,7.13
2023-03-17T13:18:48.806Z,4.83
2023-03-17T13:21:19.247Z,5.40
2023-03-17T13:23:48.669Z,5.90
2023-03-17T13:26:20.857Z,5.73
2023-03-17T13:28:50.437Z,4.43
2023-03-17T13:31:37.740Z,6.63
2023-03-17T13:34:15.134Z,6.40
2023-03-17T13:36:55.578Z,4.73
2023-03-17T13:39:50.757Z,6.03
2023-03-17T13:42:38.314Z,5.93
2023-03-17T13:45:22.380Z,5.83
2023-03-17T13:47:52.399Z,9.50
2023-03-17T13:50:25.566Z,6.60
2023-03-17T13:52:57.103Z,5.87
2023-03-17T13:55:38.678Z,6.23
2023-03-17T13:58:35.735Z,6.50
2023-03-17T14:01:07.304Z,6.87
2023-03-17T14:03:43.932Z,5.00
2023-03-17T14:06:13.523Z,5.07
2023-03-17T14:08:46.617Z,5.23
2023-03-17T14:11:23.917Z,4.60
2023-03-17T14:14:00.844Z,5.90
2023-03-17T14:16:32.527Z,6.57
2023-03-17T14:19:12.107Z,6.47
2023-03-17T14:21:39.842Z,5.97
2023-03-17T14:24:20.506Z,4.60
2023-03-17T14:26:50.288Z,6.07
2023-03-17T14:29:23.122Z,5.60
2023-03-17T14:32:00.072Z,4.90
2023-03-17T14:34:27.961Z,5.23
2023-03-17T14:36:59.356Z,5.83
2023-03-17T14:39:27.442Z,5.20
2023-03-17T14:42:00.406Z,5.57
2023-03-17T14:44:36.254Z,7.43
2023-03-17T14:47:05.436Z,5.70
2023-03-17T14:49:34.852Z,7.27
2023-03-17T14:52:03.669Z,4.30
2023-03-17T14:54:34.066Z,5.93
2023-03-17T14:57:11.120Z,4.60
2023-03-17T14:59:42.759Z,4.70
2023-03-17T15:02:22.507Z,6.33
2023-03-17T15:04:54.032Z,6.40
2023-03-17T15:07:32.702Z,5.77
2023-03-17T15:10:02.626Z,4.80
2023-03-17T15:12:31.057Z,5.77
2023-03-17T15:15:03.386Z,5.83
2023-03-17T15:17:34.288Z,5.60
2023-03-17T15:20:05.519Z,4.90
2023-03-17T15:22:41.984Z,5.10
2023-03-17T15:25:19.750Z,6.50
2023-03-17T15:27:48.571Z,4.50
2023-03-17T15:30:18.965Z,5.27
2023-03-17T15:32:52.734Z,4.70
2023-03-17T15:35:20.889Z,5.13
2023-03-17T15:37:48.694Z,4.80
2023-03-17T15:40:16.642Z,5.77
2023-03-17T15:42:45.346Z,5.10
2023-03-17T15:45:18.097Z,6.40
2023-03-17T15:47:47.623Z,8.80
2023-03-17T15:50:17.951Z,5.60
2023-03-17T15:52:46.727Z,6.50
2023-03-17T15:55:22.052Z,4.97
2023-03-17T15:57:56.921Z,5.73
2023-03-17T16:00:29.237Z,6.03
2023-03-17T16:03:00.038Z,7.23
2023-03-17T16:05:32.124Z,4.50
2023-03-17T16:07:59.857Z,4.77
2023-03-17T16:10:29.884Z,7.10
2023-03-17T16:12:57.932Z,5.90
2023-03-17T16:15:30.801Z,5.30
2023-03-17T16:18:00.643Z,7.60
2023-03-17T16:20:33.148Z,5.10
2023-03-17T16:23:08.250Z,4.70
2023-03-17T16:25:36.696Z,5.67
2023-03-17T16:28:14.685Z,5.60
2023-03-17T16:30:44.513Z,5.93
2023-03-17T16:33:17.584Z,7.40
2023-03-17T16:35:45.490Z,8.70
2023-03-17T16:38:14.580Z,5.63
2023-03-17T16:40:43.379Z,6.70
2023-03-17T16:43:25.260Z,6.70
2023-03-17T16:45:56.871Z,5.50
2023-03-17T16:48:25.130Z,6.53
2023-03-17T16:50:53.560Z,4.53
2023-03-17T16:53:21.394Z,5.27
2023-03-17T16:55:49.653Z,5.80
2023-03-17T16:58:21.370Z,7.55
2023-03-17T17:00:50.772Z,7.60
2023-03-17T17:03:20.141Z,7.00
2023-03-17T17:05:48.488Z,6.00
2023-03-17T17:08:16.212Z,5.17
2023-03-17T17:10:44.078Z,5.23
2023-03-17T17:13:13.236Z,5.40
2023-03-17T17:15:42.459Z,5.93
2023-03-17T17:18:15.818Z,5.00
2023-03-17T17:20:46.389Z,6.73
2023-03-17T17:23:17.018Z,7.27
2023-03-17T17:25:44.844Z,4.90
2023-03-17T17:28:14.244Z,5.30
2023-03-17T17:30:45.025Z,4.40
2023-03-17T17:33:13.477Z,4.40
2023-03-17T17:35:41.563Z,4.80
2023-03-17T17:38:17.532Z,5.90
2023-03-17T17:40:45.305Z,4.73
2023-03-17T17:43:13.065Z,4.70
2023-03-17T17:45:41.192Z,4.97
2023-03-17T17:48:11.355Z,5.53
2023-03-17T17:50:39.069Z,15.13
2023-03-17T17:53:08.702Z,5.23
2023-03-17T17:55:38.240Z,5.80
2023-03-17T17:58:09.581Z,4.70
2023-03-17T18:00:37.567Z,5.00
2023-03-17T18:03:05.354Z,4.57
2023-03-17T18:05:33.245Z,5.97
2023-03-17T18:08:06.450Z,6.93
2023-03-17T18:10:35.076Z,5.47
2023-03-17T18:13:05.248Z,4.70
2023-03-17T18:15:33.355Z,4.27
2023-03-17T18:18:01.086Z,7.00
2023-03-17T18:20:30.173Z,5.13
2023-03-17T18:22:58.217Z,4.63
2023-03-17T18:25:27.116Z,4.63
2023-03-17T18:27:55.588Z,6.18
2023-03-17T18:30:26.801Z,4.60
2023-03-17T18:32:57.081Z,5.97
2023-03-17T18:35:28.634Z,5.83
2023-03-17T18:37:57.727Z,5.20
2023-03-17T18:40:25.901Z,4.33
2023-03-17T18:42:55.129Z,7.17
2023-03-17T18:45:24.682Z,4.80
2023-03-17T18:47:52.375Z,5.50
2023-03-17T18:50:21.813Z,7.67
2023-03-17T18:52:49.972Z,5.73
2023-03-17T18:55:18.328Z,5.53
2023-03-17T18:57:47.284Z,6.50
2023-03-17T19:00:17.360Z,6.20
2023-03-17T19:02:47.146Z,6.47
2023-03-17T19:05:15.377Z,5.07
2023-03-17T19:07:43.279Z,4.90
2023-03-17T19:10:13.871Z,4.37
2023-03-17T19:12:42.348Z,4.50
2023-03-17T19:15:12.540Z,7.33
2023-03-17T19:17:40.792Z,6.00
2023-03-17T19:20:12.237Z,4.80
2023-03-17T19:22:40.317Z,5.63
2023-03-17T19:25:09.728Z,4.93
2023-03-17T19:27:37.612Z,5.43
2023-03-17T19:30:07.075Z,4.90
2023-03-17T19:32:34.892Z,6.10
2023-03-17T19:35:02.688Z,4.73
2023-03-17T19:37:32.166Z,4.90
2023-03-17T19:39:59.969Z,5.30
2023-03-17T19:42:27.854Z,4.17
2023-03-17T19:44:55.654Z,4.53
2023-03-17T19:47:23.422Z,6.27
2023-03-17T19:49:52.023Z,4.97
2023-03-17T19:52:20.002Z,5.63
2023-03-17T19:54:49.289Z,6.30
2023-03-17T19:57:19.037Z,6.33
2023-03-17T19:59:47.166Z,4.80
2023-03-17T20:02:16.560Z,6.40
2023-03-17T20:04:44.720Z,5.67
2023-03-17T20:07:12.668Z,5.20
2023-03-17T20:09:42.162Z,6.77
2023-03-17T20:12:19.111Z,6.23
2023-03-17T20:14:46.962Z,7.43
2023-03-17T20:17:15.312Z,5.23
2023-03-17T20:19:43.033Z,4.97
2023-03-17T20:22:11.102Z,8.23
2023-03-17T20:24:38.912Z,6.73
2023-03-17T20:27:07.856Z,5.63
2023-03-17T20:29:37.328Z,7.03
2023-03-17T20:32:05.591Z,5.93
2023-03-17T20:34:34.599Z,4.83
2023-03-17T20:37:02.727Z,7.90
2023-03-17T20:39:30.626Z,6.07
2023-03-17T20:41:58.394Z,5.50
2023-03-17T20:44:26.369Z,5.20
2023-03-17T20:46:55.521Z,5.37
2023-03-17T20:49:29.826Z,5.43
2023-03-17T20:51:57.596Z,5.70
2023-03-17T20:54:25.332Z,5.90
2023-03-17T20:56:55.854Z,5.50
2023-03-17T20:59:24.276Z,6.73
2023-03-17T21:01:52.186Z,6.53
2023-03-17T21:04:22.150Z,9.13
2023-03-17T21:06:49.952Z,5.90
2023-03-17T21:09:17.725Z,6.10
2023-03-17T21:11:45.712Z,4.60
2023-03-17T21:14:14.612Z,4.80
2023-03-17T21:16:44.734Z,4.80
2023-03-17T21:19:14.341Z,8.00
2023-03-17T21:21:43.426Z,5.77
2023-03-17T21:24:23.846Z,5.47
2023-03-17T21:26:51.553Z,9.40
2023-03-17T21:29:19.262Z,4.93
2023-03-17T21:31:47.081Z,6.23
2023-03-17T21:34:14.853Z,5.07
2023-03-17T21:36:44.003Z,6.40
2023-03-17T21:39:11.716Z,5.60
2023-03-17T21:41:40.856Z,6.60
2023-03-17T21:44:09.713Z,5.20
2023-03-17T21:46:43.718Z,5.97
2023-03-17T21:49:11.796Z,4.77
2023-03-17T21:51:39.788Z,4.93
2023-03-17T21:54:08.989Z,6.67
2023-03-17T21:56:37.005Z,5.77
2023-03-17T21:59:05.738Z,6.03
2023-03-17T22:01:34.521Z,7.13
2023-03-17T22:04:02.242Z,5.30
2023-03-17T22:06:30.057Z,4.50
2023-03-17T22:08:57.854Z,6.07
2023-03-17T22:11:27.102Z,5.60
2023-03-17T22:13:55.010Z,6.20
2023-03-17T22:16:22.776Z,6.77
2023-03-17T22:18:50.528Z,4.87
2023-03-17T22:21:26.558Z,7.90
2023-03-17T22:23:54.709Z,5.43
2023-03-17T22:26:23.356Z,8.17
2023-03-17T22:28:53.555Z,5.80
2023-03-17T22:31:24.089Z,5.10
2023-03-17T22:33:55.160Z,8.57
2023-03-17T22:36:26.520Z,5.40
2023-03-17T22:38:58.844Z,5.70
2023-03-17T22:41:28.645Z,6.60
2023-03-17T22:43:58.247Z,6.33
2023-03-17T22:46:26.101Z,5.07
2023-03-17T22:48:53.903Z,6.40
2023-03-17T22:51:27.565Z,8.07
2023-03-17T22:53:57.355Z,8.00
2023-03-17T22:56:26.135Z,6.17
2023-03-17T22:58:54.572Z,4.80
2023-03-17T23:01:25.675Z,6.73
2023-03-17T23:03:56.872Z,5.77
2023-03-17T23:06:25.744Z,5.40
2023-03-17T23:08:53.692Z,7.57
2023-03-17T23:11:25.496Z,6.17
2023-03-17T23:13:53.923Z,6.30
2023-03-17T23:16:23.176Z,5.80
2023-03-17T23:18:51.410Z,5.40
2023-03-17T23:21:24.582Z,6.07
2023-03-17T23:23:52.322Z,5.27
2023-03-17T23:26:20.310Z,5.50
2023-03-17T23:28:48.284Z,7.87
2023-03-17T23:31:16.670Z,6.33
2023-03-17T23:33:46.067Z,6.50
2023-03-17T23:36:16.160Z,6.27
2023-03-17T23:38:45.465Z,6.83
2023-03-17T23:41:14.430Z,6.03
2023-03-17T23:43:43.907Z,5.40
2023-03-17T23:46:13.742Z,7.10
2023-03-17T23:48:42.857Z,6.70
2023-03-17T23:51:14.893Z,7.60
2023-03-17T23:53:42.904Z,8.40
2023-03-17T23:56:12.928Z,6.17
2023-03-17T23:58:41.395Z,6.07
